Notikewin, Canada
Current Conditions -  °F | °C
As of 5:00 AM on Sunday 25 Jan 2015 (Local Time) from CYPE Reporting Station
Overcast Overcast  
Wind Chill: 31°   Ceiling: 8000
Heat Index: 41°   Visibility: 15mi
Dew Point: 34°   Wind: 25mph
Humidity: 76%   Direction: 230°SW
Pressure: 29.4"   Gusts: 32mph
Location:  56.97°N, 117.6°W
Report Text: CYPE 251200Z 23022G28KT 15SM OVC080 05/01 A2940 RMK AC8 SLP978
Loading
Personal Weather Stations






























Interactive Weather Map New forecast layout! Learn more

10-Day Weather Forecast

Advertisements
Track Severe Weather on mobile